sensor_id;sensor_type;location;lat;lon;timestamp;pressure;altitude;pressure_sealevel;temperature;humidity
53889;BME280;41337;51.400;-2.342;2023-07-31T00:07:40;100485.97;;;16.54;97.48
53889;BME280;41337;51.400;-2.342;2023-07-31T00:17:44;100490.00;;;16.56;97.37
53889;BME280;41337;51.400;-2.342;2023-07-31T00:27:49;100482.69;;;16.58;97.06
53889;BME280;41337;51.400;-2.342;2023-07-31T00:37:57;100471.00;;;16.59;97.60
53889;BME280;41337;51.400;-2.342;2023-07-31T00:48:02;100446.25;;;16.65;96.42
53889;BME280;41337;51.400;-2.342;2023-07-31T00:58:09;100448.72;;;16.67;97.06
53889;BME280;41337;51.400;-2.342;2023-07-31T01:18:33;100411.88;;;16.70;97.52
53889;BME280;41337;51.400;-2.342;2023-07-31T01:29:12;100405.38;;;16.66;98.80
53889;BME280;41337;51.400;-2.342;2023-07-31T01:34:22;100395.56;;;16.67;98.59
53889;BME280;41337;51.400;-2.342;2023-07-31T01:39:26;100401.06;;;16.72;99.39
53889;BME280;41337;51.400;-2.342;2023-07-31T01:44:53;100383.25;;;16.72;99.45
53889;BME280;41337;51.400;-2.342;2023-07-31T01:54:57;100364.06;;;16.70;100.00
53889;BME280;41337;51.400;-2.342;2023-07-31T02:05:02;100359.31;;;16.72;100.00
53889;BME280;41337;51.400;-2.342;2023-07-31T02:15:06;100367.09;;;16.74;100.00
53889;BME280;41337;51.400;-2.342;2023-07-31T02:20:07;100360.97;;;16.73;100.00
53889;BME280;41337;51.400;-2.342;2023-07-31T02:25:10;100364.06;;;16.70;100.00
53889;BME280;41337;51.400;-2.342;2023-07-31T02:40:37;100344.84;;;16.68;100.00
53889;BME280;41337;51.400;-2.342;2023-07-31T02:45:39;100347.91;;;16.72;100.00
53889;BME280;41337;51.400;-2.342;2023-07-31T02:50:40;100345.63;;;16.75;100.00
53889;BME280;41337;51.400;-2.342;2023-07-31T02:55:43;100351.75;;;16.76;100.00
53889;BME280;41337;51.400;-2.342;2023-07-31T03:11:26;100351.97;;;16.74;100.00
53889;BME280;41337;51.400;-2.342;2023-07-31T03:16:27;100343.44;;;16.66;100.00
53889;BME280;41337;51.400;-2.342;2023-07-31T03:21:28;100343.50;;;16.59;100.00
53889;BME280;41337;51.400;-2.342;2023-07-31T03:26:31;100336.94;;;16.62;100.00
53889;BME280;41337;51.400;-2.342;2023-07-31T03:52:15;100331.50;;;16.50;100.00
53889;BME280;41337;51.400;-2.342;2023-07-31T03:57:16;100322.09;;;16.48;100.00
53889;BME280;41337;51.400;-2.342;2023-07-31T04:02:19;100340.50;;;16.49;100.00
53889;BME280;41337;51.400;-2.342;2023-07-31T04:07:21;100350.13;;;16.43;100.00
53889;BME280;41337;51.400;-2.342;2023-07-31T04:12:22;100340.31;;;16.44;100.00
53889;BME280;41337;51.400;-2.342;2023-07-31T04:22:25;100338.38;;;16.33;100.00
53889;BME280;41337;51.400;-2.342;2023-07-31T04:27:34;100332.84;;;16.34;100.00
53889;BME280;41337;51.400;-2.342;2023-07-31T04:37:44;100348.38;;;16.31;100.00
53889;BME280;41337;51.400;-2.342;2023-07-31T04:42:49;100332.28;;;16.26;100.00
53889;BME280;41337;51.400;-2.342;2023-07-31T04:47:50;100355.38;;;16.25;100.00
53889;BME280;41337;51.400;-2.342;2023-07-31T05:03:24;100343.16;;;16.18;100.00
53889;BME280;41337;51.400;-2.342;2023-07-31T05:08:50;100328.25;;;16.17;100.00
53889;BME280;41337;51.400;-2.342;2023-07-31T05:13:51;100327.25;;;16.18;100.00
53889;BME280;41337;51.400;-2.342;2023-07-31T05:18:51;100332.34;;;16.19;100.00
53889;BME280;41337;51.400;-2.342;2023-07-31T05:23:54;100320.25;;;16.23;100.00
53889;BME280;41337;51.400;-2.342;2023-07-31T05:28:56;100311.94;;;16.20;99.45
53889;BME280;41337;51.400;-2.342;2023-07-31T05:34:02;100312.13;;;16.18;98.96
53889;BME280;41337;51.400;-2.342;2023-07-31T05:39:05;100309.28;;;16.20;99.28
53889;BME280;41337;51.400;-2.342;2023-07-31T05:44:09;100314.78;;;16.18;98.96
53889;BME280;41337;51.400;-2.342;2023-07-31T05:49:10;100319.88;;;16.20;99.09
53889;BME280;41337;51.400;-2.342;2023-07-31T05:59:19;100318.63;;;16.22;99.02
53889;BME280;41337;51.400;-2.342;2023-07-31T06:04:28;100301.47;;;16.25;99.94
53889;BME280;41337;51.400;-2.342;2023-07-31T06:09:28;100297.91;;;16.37;98.94
53889;BME280;41337;51.400;-2.342;2023-07-31T06:14:29;100291.94;;;16.42;98.65
53889;BME280;41337;51.400;-2.342;2023-07-31T06:19:36;100289.22;;;16.49;97.97
53889;BME280;41337;51.400;-2.342;2023-07-31T06:24:37;100290.78;;;16.56;97.72
53889;BME280;41337;51.400;-2.342;2023-07-31T06:29:38;100299.38;;;16.58;96.43
53889;BME280;41337;51.400;-2.342;2023-07-31T06:34:40;100307.00;;;16.48;96.78
53889;BME280;41337;51.400;-2.342;2023-07-31T06:39:50;100288.31;;;16.36;96.09
53889;BME280;41337;51.400;-2.342;2023-07-31T06:44:51;100276.50;;;16.32;96.78
53889;BME280;41337;51.400;-2.342;2023-07-31T06:49:52;100278.66;;;16.42;97.32
53889;BME280;41337;51.400;-2.342;2023-07-31T06:55:19;100284.94;;;16.48;95.88
53889;BME280;41337;51.400;-2.342;2023-07-31T07:00:22;100299.63;;;16.50;96.56
53889;BME280;41337;51.400;-2.342;2023-07-31T07:05:22;100294.81;;;16.65;96.43
53889;BME280;41337;51.400;-2.342;2023-07-31T07:10:25;100291.75;;;16.86;94.20
53889;BME280;41337;51.400;-2.342;2023-07-31T07:15:26;100286.22;;;16.88;92.56
53889;BME280;41337;51.400;-2.342;2023-07-31T07:20:36;100291.38;;;17.01;93.84
53889;BME280;41337;51.400;-2.342;2023-07-31T07:25:38;100280.00;;;17.12;92.64
53889;BME280;41337;51.400;-2.342;2023-07-31T07:30:41;100280.22;;;17.29;91.13
53889;BME280;41337;51.400;-2.342;2023-07-31T07:35:42;100275.84;;;17.34;90.93
53889;BME280;41337;51.400;-2.342;2023-07-31T07:56:27;100264.81;;;17.49;88.46
53889;BME280;41337;51.400;-2.342;2023-07-31T08:01:30;100271.53;;;17.52;87.38
53889;BME280;41337;51.400;-2.342;2023-07-31T08:06:34;100262.81;;;17.63;89.20
53889;BME280;41337;51.400;-2.342;2023-07-31T08:11:37;100233.75;;;17.61;87.21
53889;BME280;41337;51.400;-2.342;2023-07-31T08:16:42;100241.69;;;17.79;87.55
53889;BME280;41337;51.400;-2.342;2023-07-31T08:21:45;100235.91;;;17.83;86.58
53889;BME280;41337;51.400;-2.342;2023-07-31T08:31:52;100207.41;;;17.71;84.33
53889;BME280;41337;51.400;-2.342;2023-07-31T08:41:59;100239.66;;;18.05;85.38
53889;BME280;41337;51.400;-2.342;2023-07-31T09:03:15;100233.41;;;18.11;82.21
53889;BME280;41337;51.400;-2.342;2023-07-31T09:13:20;100252.19;;;18.51;80.61
53889;BME280;41337;51.400;-2.342;2023-07-31T09:23:43;100234.47;;;18.33;78.96
53889;BME280;41337;51.400;-2.342;2023-07-31T09:33:55;100234.19;;;17.88;81.29
53889;BME280;41337;51.400;-2.342;2023-07-31T09:39:02;100214.38;;;17.72;81.92
53889;BME280;41337;51.400;-2.342;2023-07-31T09:44:06;100227.22;;;17.57;84.53
53889;BME280;41337;51.400;-2.342;2023-07-31T09:54:16;100221.91;;;17.57;84.42
53889;BME280;41337;51.400;-2.342;2023-07-31T10:04:21;100232.19;;;17.54;86.32
53889;BME280;41337;51.400;-2.342;2023-07-31T10:14:34;100276.03;;;17.51;85.77
53889;BME280;41337;51.400;-2.342;2023-07-31T10:19:37;100277.78;;;17.57;86.53
53889;BME280;41337;51.400;-2.342;2023-07-31T10:24:43;100280.47;;;17.87;83.48
53889;BME280;41337;51.400;-2.342;2023-07-31T10:34:51;100297.84;;;17.90;78.99
53889;BME280;41337;51.400;-2.342;2023-07-31T10:45:00;100289.97;;;18.36;73.94
53889;BME280;41337;51.400;-2.342;2023-07-31T10:50:21;100284.22;;;18.09;77.08
53889;BME280;41337;51.400;-2.342;2023-07-31T11:00:28;100290.25;;;18.05;77.57
53889;BME280;41337;51.400;-2.342;2023-07-31T11:16:03;100263.31;;;17.71;78.47
53889;BME280;41337;51.400;-2.342;2023-07-31T11:21:04;100238.34;;;17.54;79.05
53889;BME280;41337;51.400;-2.342;2023-07-31T11:31:16;100215.34;;;17.30;79.86
53889;BME280;41337;51.400;-2.342;2023-07-31T11:36:20;100228.72;;;17.23;80.97
53889;BME280;41337;51.400;-2.342;2023-07-31T11:46:25;100231.63;;;17.04;85.56
53889;BME280;41337;51.400;-2.342;2023-07-31T11:51:36;100187.31;;;16.98;87.46
53889;BME280;41337;51.400;-2.342;2023-07-31T12:01:42;100178.72;;;16.84;86.08
53889;BME280;41337;51.400;-2.342;2023-07-31T12:11:49;100174.38;;;16.71;88.09
53889;BME280;41337;51.400;-2.342;2023-07-31T12:17:04;100115.69;;;16.55;89.99
53889;BME280;41337;51.400;-2.342;2023-07-31T12:22:12;100192.66;;;16.61;90.76
53889;BME280;41337;51.400;-2.342;2023-07-31T12:27:21;100165.09;;;16.56;92.15
53889;BME280;41337;51.400;-2.342;2023-07-31T12:32:26;100099.31;;;16.58;93.47
53889;BME280;41337;51.400;-2.342;2023-07-31T12:37:30;100198.56;;;16.81;90.89
53889;BME280;41337;51.400;-2.342;2023-07-31T12:42:33;100234.09;;;16.87;88.43
53889;BME280;41337;51.400;-2.342;2023-07-31T12:47:34;100252.00;;;16.73;89.27
53889;BME280;41337;51.400;-2.342;2023-07-31T12:52:35;100262.00;;;16.53;90.54
53889;BME280;41337;51.400;-2.342;2023-07-31T12:57:36;100185.97;;;16.34;89.67
53889;BME280;41337;51.400;-2.342;2023-07-31T13:02:37;100158.47;;;16.28;90.85
53889;BME280;41337;51.400;-2.342;2023-07-31T13:12:39;100120.34;;;16.41;91.41
53889;BME280;41337;51.400;-2.342;2023-07-31T13:17:40;100124.69;;;16.54;91.21
53889;BME280;41337;51.400;-2.342;2023-07-31T13:22:43;100158.50;;;16.65;90.91
53889;BME280;41337;51.400;-2.342;2023-07-31T13:27:44;100156.72;;;16.77;88.80
53889;BME280;41337;51.400;-2.342;2023-07-31T13:43:15;100167.88;;;16.67;89.08
53889;BME280;41337;51.400;-2.342;2023-07-31T13:53:20;100124.81;;;16.77;88.25
53889;BME280;41337;51.400;-2.342;2023-07-31T14:03:25;100138.31;;;16.94;87.90
53889;BME280;41337;51.400;-2.342;2023-07-31T14:13:30;100117.13;;;17.17;87.30
53889;BME280;41337;51.400;-2.342;2023-07-31T14:23:37;100115.56;;;17.80;85.17
53889;BME280;41337;51.400;-2.342;2023-07-31T14:33:41;100122.19;;;18.64;82.30
53889;BME280;41337;51.400;-2.342;2023-07-31T14:44:09;100091.16;;;19.15;72.42
53889;BME280;41337;51.400;-2.342;2023-07-31T14:54:14;100110.63;;;19.15;70.15
53889;BME280;41337;51.400;-2.342;2023-07-31T15:04:17;100091.13;;;18.98;72.72
53889;BME280;41337;51.400;-2.342;2023-07-31T15:14:21;100082.19;;;19.21;70.32
53889;BME280;41337;51.400;-2.342;2023-07-31T15:24:28;100047.75;;;19.70;70.63
53889;BME280;41337;51.400;-2.342;2023-07-31T15:34:39;100070.81;;;19.76;67.58
53889;BME280;41337;51.400;-2.342;2023-07-31T15:44:44;100043.34;;;19.58;67.43
53889;BME280;41337;51.400;-2.342;2023-07-31T15:54:50;100047.44;;;19.33;66.83
53889;BME280;41337;51.400;-2.342;2023-07-31T16:04:54;100047.00;;;18.91;71.36
53889;BME280;41337;51.400;-2.342;2023-07-31T16:14:57;100038.38;;;19.17;71.61
53889;BME280;41337;51.400;-2.342;2023-07-31T16:19:59;100035.41;;;19.30;71.02
53889;BME280;41337;51.400;-2.342;2023-07-31T16:25:02;100032.16;;;19.28;66.81
53889;BME280;41337;51.400;-2.342;2023-07-31T16:30:05;100028.03;;;19.04;69.57
53889;BME280;41337;51.400;-2.342;2023-07-31T16:35:07;100027.81;;;19.39;67.20
53889;BME280;41337;51.400;-2.342;2023-07-31T16:40:10;100029.06;;;19.36;66.73
53889;BME280;41337;51.400;-2.342;2023-07-31T16:45:12;100015.50;;;19.04;67.58
53889;BME280;41337;51.400;-2.342;2023-07-31T16:50:14;100002.88;;;18.83;70.12
53889;BME280;41337;51.400;-2.342;2023-07-31T16:55:17;99996.00;;;18.70;69.54
53889;BME280;41337;51.400;-2.342;2023-07-31T17:00:19;99999.19;;;19.34;68.71
53889;BME280;41337;51.400;-2.342;2023-07-31T17:05:21;99988.97;;;19.65;67.42
53889;BME280;41337;51.400;-2.342;2023-07-31T17:10:23;99992.19;;;19.67;68.46
53889;BME280;41337;51.400;-2.342;2023-07-31T17:15:24;99987.66;;;19.67;68.44
53889;BME280;41337;51.400;-2.342;2023-07-31T17:20:31;99985.88;;;19.39;68.65
53889;BME280;41337;51.400;-2.342;2023-07-31T17:25:37;99987.38;;;19.30;68.79
53889;BME280;41337;51.400;-2.342;2023-07-31T17:40:46;99987.97;;;18.54;68.67
53889;BME280;41337;51.400;-2.342;2023-07-31T17:45:49;99984.91;;;18.50;68.69
53889;BME280;41337;51.400;-2.342;2023-07-31T17:55:54;99984.31;;;19.22;64.95
53889;BME280;41337;51.400;-2.342;2023-07-31T18:05:58;99969.53;;;19.47;65.34
53889;BME280;41337;51.400;-2.342;2023-07-31T18:16:02;99977.25;;;18.82;67.92
53889;BME280;41337;51.400;-2.342;2023-07-31T18:26:08;99967.56;;;18.19;69.85
53889;BME280;41337;51.400;-2.342;2023-07-31T18:36:14;99985.38;;;17.56;77.92
53889;BME280;41337;51.400;-2.342;2023-07-31T18:46:17;99973.56;;;17.05;81.56
53889;BME280;41337;51.400;-2.342;2023-07-31T18:56:20;99981.28;;;16.95;81.99
53889;BME280;41337;51.400;-2.342;2023-07-31T19:01:22;99972.19;;;16.73;82.19
53889;BME280;41337;51.400;-2.342;2023-07-31T19:06:23;99981.44;;;16.70;82.93
53889;BME280;41337;51.400;-2.342;2023-07-31T19:11:24;99986.06;;;16.63;82.71
53889;BME280;41337;51.400;-2.342;2023-07-31T19:16:25;99978.81;;;16.52;82.74
53889;BME280;41337;51.400;-2.342;2023-07-31T19:21:26;99974.09;;;16.54;82.34
53889;BME280;41337;51.400;-2.342;2023-07-31T19:26:26;99948.78;;;16.52;82.59
53889;BME280;41337;51.400;-2.342;2023-07-31T19:31:30;99957.56;;;16.52;82.89
53889;BME280;41337;51.400;-2.342;2023-07-31T19:41:41;99958.09;;;16.42;83.01
53889;BME280;41337;51.400;-2.342;2023-07-31T19:46:46;99947.78;;;16.34;83.26
53889;BME280;41337;51.400;-2.342;2023-07-31T19:51:48;99951.84;;;16.37;82.65
53889;BME280;41337;51.400;-2.342;2023-07-31T19:56:54;99949.13;;;16.25;83.41
53889;BME280;41337;51.400;-2.342;2023-07-31T20:01:55;99946.78;;;16.17;83.47
53889;BME280;41337;51.400;-2.342;2023-07-31T20:06:58;99945.41;;;16.15;84.32
53889;BME280;41337;51.400;-2.342;2023-07-31T20:12:00;99960.16;;;16.11;83.87
53889;BME280;41337;51.400;-2.342;2023-07-31T20:17:01;99962.38;;;15.95;85.00
53889;BME280;41337;51.400;-2.342;2023-07-31T20:22:03;99977.72;;;15.93;84.53
53889;BME280;41337;51.400;-2.342;2023-07-31T20:27:04;99972.41;;;15.93;85.29
53889;BME280;41337;51.400;-2.342;2023-07-31T20:32:05;99972.63;;;15.92;85.32
53889;BME280;41337;51.400;-2.342;2023-07-31T20:37:08;99984.88;;;15.93;85.18
53889;BME280;41337;51.400;-2.342;2023-07-31T20:42:09;99983.69;;;15.89;85.38
53889;BME280;41337;51.400;-2.342;2023-07-31T20:47:16;99980.22;;;15.88;85.24
53889;BME280;41337;51.400;-2.342;2023-07-31T20:52:17;99967.41;;;15.85;85.71
53889;BME280;41337;51.400;-2.342;2023-07-31T20:57:18;99963.34;;;15.83;85.29
53889;BME280;41337;51.400;-2.342;2023-07-31T21:02:19;99970.94;;;15.79;84.87
53889;BME280;41337;51.400;-2.342;2023-07-31T21:07:21;99963.56;;;15.81;84.84
53889;BME280;41337;51.400;-2.342;2023-07-31T21:12:23;99952.66;;;15.71;85.66
53889;BME280;41337;51.400;-2.342;2023-07-31T21:17:24;99956.13;;;15.72;86.61
53889;BME280;41337;51.400;-2.342;2023-07-31T21:22:25;99971.88;;;15.67;86.75
53889;BME280;41337;51.400;-2.342;2023-07-31T21:27:26;99977.63;;;15.64;85.93
53889;BME280;41337;51.400;-2.342;2023-07-31T21:32:27;99969.03;;;15.68;85.67
53889;BME280;41337;51.400;-2.342;2023-07-31T21:37:29;99963.88;;;15.73;85.65
53889;BME280;41337;51.400;-2.342;2023-07-31T21:42:31;99950.00;;;15.71;86.50
53889;BME280;41337;51.400;-2.342;2023-07-31T21:47:33;99940.66;;;15.69;86.26
53889;BME280;41337;51.400;-2.342;2023-07-31T21:52:33;99947.44;;;15.65;86.47
53889;BME280;41337;51.400;-2.342;2023-07-31T21:57:35;99950.09;;;15.65;87.22
53889;BME280;41337;51.400;-2.342;2023-07-31T22:02:42;99950.00;;;15.71;86.82
53889;BME280;41337;51.400;-2.342;2023-07-31T22:07:43;99950.38;;;15.75;86.24
53889;BME280;41337;51.400;-2.342;2023-07-31T22:12:44;99945.47;;;15.78;86.74
53889;BME280;41337;51.400;-2.342;2023-07-31T22:17:45;99938.06;;;15.80;85.62
53889;BME280;41337;51.400;-2.342;2023-07-31T22:22:45;99936.03;;;15.82;85.68
53889;BME280;41337;51.400;-2.342;2023-07-31T22:27:46;99943.38;;;15.80;86.65
53889;BME280;41337;51.400;-2.342;2023-07-31T22:32:47;99944.66;;;15.78;86.27
53889;BME280;41337;51.400;-2.342;2023-07-31T22:37:48;99925.25;;;15.77;87.17
53889;BME280;41337;51.400;-2.342;2023-07-31T22:42:49;99913.38;;;15.80;86.68
53889;BME280;41337;51.400;-2.342;2023-07-31T22:47:50;99924.22;;;15.78;86.31
53889;BME280;41337;51.400;-2.342;2023-07-31T22:52:53;99915.66;;;15.76;86.88
53889;BME280;41337;51.400;-2.342;2023-07-31T22:57:56;99910.56;;;15.75;87.09
53889;BME280;41337;51.400;-2.342;2023-07-31T23:03:03;99909.03;;;15.67;87.92
53889;BME280;41337;51.400;-2.342;2023-07-31T23:08:04;99904.75;;;15.66;88.75
53889;BME280;41337;51.400;-2.342;2023-07-31T23:13:07;99903.00;;;15.60;88.92
53889;BME280;41337;51.400;-2.342;2023-07-31T23:18:09;99907.81;;;15.51;89.04
53889;BME280;41337;51.400;-2.342;2023-07-31T23:23:09;99903.13;;;15.47;90.06
53889;BME280;41337;51.400;-2.342;2023-07-31T23:28:10;99903.69;;;15.49;90.33
53889;BME280;41337;51.400;-2.342;2023-07-31T23:33:12;99902.09;;;15.48;90.45
53889;BME280;41337;51.400;-2.342;2023-07-31T23:38:13;99891.56;;;15.41;91.08
53889;BME280;41337;51.400;-2.342;2023-07-31T23:43:14;99890.16;;;15.39;91.38
53889;BME280;41337;51.400;-2.342;2023-07-31T23:53:48;99894.94;;;15.30;91.72
53889;BME280;41337;51.400;-2.342;2023-07-31T23:58:48;99894.13;;;15.30;91.75
